Time;durP1;ratioP1;P1;durP2;ratioP2;P2;SDS_P1;SDS_P2;PMS_P1;PMS_P2;Temp;Humidity;BMP_temperature;BMP_pressure;BME280_temperature;BME280_humidity;BME280_pressure;Samples;Min_cycle;Max_cycle;Signal;HPM_P1;HPM_P2
2023/12/30 00:03:25;;;;;;;12.82;4.97;;;;;;;6.16;100.00;100614.13;10511703;28;20181;-79
2023/12/30 00:08:26;;;;;;;9.02;3.20;;;;;;;6.20;100.00;100616.13;10504708;28;20071;-80
2023/12/30 00:13:26;;;;;;;13.35;4.65;;;;;;;6.14;100.00;100628.72;10476067;28;20067;-80
2023/12/30 00:18:27;;;;;;;6.78;3.00;;;;;;;6.05;100.00;100629.06;10507367;28;20040;-80
2023/12/30 00:23:27;;;;;;;9.13;4.10;;;;;;;5.94;100.00;100638.75;10501470;28;20162;-79
2023/12/30 00:28:28;;;;;;;10.07;4.68;;;;;;;5.96;100.00;100646.63;10501906;28;20381;-82
2023/12/30 00:33:28;;;;;;;5.88;3.13;;;;;;;5.94;100.00;100654.34;10509430;28;20131;-79
2023/12/30 00:38:29;;;;;;;9.80;4.18;;;;;;;6.00;100.00;100643.41;10484579;28;20120;-79
2023/12/30 00:43:30;;;;;;;18.02;4.18;;;;;;;6.01;100.00;100648.75;10523178;28;20617;-79
2023/12/30 00:48:31;;;;;;;11.23;4.50;;;;;;;5.86;100.00;100656.44;10500419;28;20039;-79
2023/12/30 00:53:31;;;;;;;14.60;5.65;;;;;;;5.83;100.00;100670.94;10513573;28;20045;-79
2023/12/30 00:58:32;;;;;;;20.92;5.10;;;;;;;5.85;100.00;100675.41;10463121;28;20040;-79
2023/12/30 01:03:32;;;;;;;18.02;7.05;;;;;;;5.88;100.00;100690.31;10503196;28;20534;-79
2023/12/30 01:08:33;;;;;;;10.85;4.03;;;;;;;5.79;100.00;100703.59;10502289;28;20032;-79
2023/12/30 01:13:33;;;;;;;9.10;4.40;;;;;;;5.83;100.00;100703.00;10505729;28;20114;-79
2023/12/30 01:18:34;;;;;;;14.82;4.70;;;;;;;6.07;100.00;100709.72;10508291;28;20040;-79
2023/12/30 01:23:34;;;;;;;9.63;3.17;;;;;;;6.29;100.00;100715.44;10489509;28;20070;-79
2023/12/30 01:28:36;;;;;;;8.65;3.58;;;;;;;6.39;100.00;100716.03;10508017;28;20035;-79
2023/12/30 01:33:36;;;;;;;10.55;4.45;;;;;;;6.41;100.00;100725.69;10504930;28;20483;-79
2023/12/30 01:38:37;;;;;;;8.38;3.63;;;;;;;6.53;100.00;100719.47;10506443;28;20118;-79
2023/12/30 01:43:38;;;;;;;20.42;4.82;;;;;;;6.56;100.00;100712.75;10489524;28;20135;-80
2023/12/30 01:48:39;;;;;;;20.48;4.40;;;;;;;6.50;100.00;100720.19;10506466;28;20544;-80
2023/12/30 01:53:39;;;;;;;10.07;3.55;;;;;;;6.28;100.00;100717.94;10484608;28;20052;-79
2023/12/30 01:58:40;;;;;;;16.73;4.95;;;;;;;6.35;100.00;100722.72;10498503;28;20126;-79
2023/12/30 02:03:41;;;;;;;15.45;4.45;;;;;;;6.40;100.00;100731.69;10520196;28;20086;-79
2023/12/30 02:08:41;;;;;;;7.82;3.63;;;;;;;6.45;100.00;100732.88;10505517;28;20036;-79
2023/12/30 02:13:42;;;;;;;9.75;4.32;;;;;;;6.46;100.00;100733.81;10495703;28;20040;-79
2023/12/30 02:18:43;;;;;;;13.68;4.20;;;;;;;6.28;100.00;100734.44;10505351;28;20093;-79
2023/12/30 02:23:43;;;;;;;9.05;3.58;;;;;;;6.21;100.00;100752.16;10497963;28;20069;-79
2023/12/30 02:28:44;;;;;;;19.90;5.25;;;;;;;6.13;100.00;100752.56;10498407;28;20532;-79
2023/12/30 02:33:44;;;;;;;13.77;3.20;;;;;;;6.04;100.00;100754.56;10473814;28;20066;-79
2023/12/30 02:38:45;;;;;;;11.80;4.53;;;;;;;6.13;100.00;100744.75;10508268;28;20131;-78
2023/12/30 02:43:59;;;;;;;12.20;4.97;;;;;;;6.06;100.00;100745.16;10496129;28;20131;-79
2023/12/30 02:49:03;;;;;;;7.78;3.70;;;;;;;6.11;100.00;100761.06;10501450;28;20369;-78
2023/12/30 02:54:03;;;;;;;8.95;4.03;;;;;;;6.16;100.00;100770.94;10506944;28;20468;-79
2023/12/30 02:59:04;;;;;;;17.40;5.63;;;;;;;6.20;100.00;100764.25;10500928;28;20089;-79
2023/12/30 03:04:04;;;;;;;11.30;3.55;;;;;;;6.31;100.00;100765.84;10516632;28;20036;-79
2023/12/30 03:09:05;;;;;;;5.20;2.58;;;;;;;6.36;100.00;100776.50;10484982;28;20570;-82
2023/12/30 03:14:05;;;;;;;8.00;3.78;;;;;;;6.17;100.00;100772.75;10514322;28;20058;-79
2023/12/30 03:19:06;;;;;;;13.30;4.10;;;;;;;6.07;100.00;100770.34;10495434;28;20069;-79
2023/12/30 03:24:06;;;;;;;13.13;3.00;;;;;;;5.95;100.00;100778.22;10495120;28;20076;-79
2023/12/30 03:29:07;;;;;;;14.63;3.97;;;;;;;5.81;100.00;100787.72;10493191;28;20036;-80
2023/12/30 03:34:07;;;;;;;11.52;3.45;;;;;;;5.71;100.00;100799.22;10520393;28;20451;-79
2023/12/30 03:39:08;;;;;;;8.65;3.58;;;;;;;5.59;100.00;100791.50;10507721;28;20047;-80
2023/12/30 03:44:08;;;;;;;15.57;4.78;;;;;;;5.65;100.00;100795.28;10498958;28;20120;-81
2023/12/30 03:49:09;;;;;;;16.35;5.28;;;;;;;5.54;100.00;100792.00;10510050;28;20130;-79
2023/12/30 03:54:09;;;;;;;22.40;5.25;;;;;;;5.54;100.00;100802.38;10518383;28;20176;-79
2023/12/30 03:59:10;;;;;;;9.68;4.25;;;;;;;5.45;100.00;100792.25;10507509;28;20071;-79
2023/12/30 04:04:11;;;;;;;20.67;4.47;;;;;;;5.52;100.00;100804.84;10506981;28;20044;-78
2023/12/30 04:09:11;;;;;;;12.50;2.92;;;;;;;5.69;100.00;100803.41;10507854;28;20036;-78
2023/12/30 04:14:12;;;;;;;9.60;3.83;;;;;;;5.81;100.00;100811.09;10505897;28;20038;-79
2023/12/30 04:19:12;;;;;;;11.57;3.42;;;;;;;5.93;100.00;100815.28;10496653;28;20130;-78
2023/12/30 04:24:13;;;;;;;12.20;4.63;;;;;;;5.95;100.00;100805.91;10500832;28;20058;-78
2023/12/30 04:29:13;;;;;;;14.13;5.85;;;;;;;5.89;100.00;100803.81;10485100;28;20060;-79
2023/12/30 04:34:14;;;;;;;17.05;5.53;;;;;;;6.01;100.00;100796.84;10473337;28;20584;-78
2023/12/30 04:39:14;;;;;;;12.63;5.55;;;;;;;6.16;100.00;100796.94;10491290;28;20026;-79
2023/12/30 04:44:15;;;;;;;17.38;4.68;;;;;;;6.12;100.00;100788.84;10503383;28;20498;-79
2023/12/30 04:49:15;;;;;;;11.60;4.22;;;;;;;5.97;100.00;100796.50;10508056;28;20178;-79
2023/12/30 04:54:15;;;;;;;8.50;3.97;;;;;;;5.98;100.00;100808.69;10497443;28;20085;-78
2023/12/30 04:59:16;;;;;;;18.13;5.13;;;;;;;6.13;100.00;100809.72;10495413;28;20448;-78
2023/12/30 05:04:16;;;;;;;11.63;4.30;;;;;;;6.21;100.00;100807.63;10499012;28;20124;-79
2023/12/30 05:09:17;;;;;;;10.82;4.40;;;;;;;6.08;100.00;100818.91;10508079;28;20032;-79
2023/12/30 05:14:19;;;;;;;14.80;6.32;;;;;;;6.17;100.00;100818.63;10474343;28;20035;-79
2023/12/30 05:19:20;;;;;;;16.55;5.55;;;;;;;6.12;100.00;100817.44;10488978;28;20123;-79
2023/12/30 05:24:21;;;;;;;15.30;4.88;;;;;;;5.99;100.00;100828.69;10490772;28;20058;-80
2023/12/30 05:29:22;;;;;;;14.37;4.97;;;;;;;5.84;100.00;100834.66;10506339;28;20059;-79
2023/12/30 05:34:23;;;;;;;18.03;4.47;;;;;;;5.70;100.00;100845.84;10495363;28;20032;-79
2023/12/30 05:39:23;;;;;;;16.55;4.47;;;;;;;5.67;100.00;100845.63;10481288;28;20131;-79
2023/12/30 05:44:24;;;;;;;18.85;5.18;;;;;;;5.55;100.00;100851.78;10503697;28;20131;-81
2023/12/30 05:49:24;;;;;;;22.25;4.70;;;;;;;5.40;100.00;100861.13;10505901;28;20562;-79
2023/12/30 05:54:26;;;;;;;9.15;5.40;;;;;;;5.31;100.00;100863.09;10486445;28;20498;-79
2023/12/30 05:59:26;;;;;;;18.50;4.20;;;;;;;5.29;100.00;100863.00;10507043;28;20035;-79
2023/12/30 06:04:27;;;;;;;10.43;4.78;;;;;;;5.24;100.00;100864.38;10495961;28;20060;-78
2023/12/30 06:09:27;;;;;;;12.35;4.25;;;;;;;5.20;100.00;100859.78;10499256;28;20475;-80
2023/12/30 06:14:28;;;;;;;16.02;4.45;;;;;;;5.00;100.00;100887.84;10502381;28;20181;-78
2023/12/30 06:19:28;;;;;;;11.85;5.03;;;;;;;4.94;100.00;100900.38;10423611;28;20527;-78
2023/12/30 06:24:29;;;;;;;16.52;5.18;;;;;;;4.96;100.00;100915.22;10397503;28;20048;-79
2023/12/30 06:29:30;;;;;;;10.82;5.68;;;;;;;4.90;100.00;100913.91;10390188;28;20044;-78
2023/12/30 06:34:31;;;;;;;23.25;5.30;;;;;;;4.96;100.00;100915.22;10470994;28;20201;-79
2023/12/30 06:39:31;;;;;;;13.95;4.00;;;;;;;4.90;100.00;100924.28;10476337;28;20561;-79
2023/12/30 06:44:32;;;;;;;12.48;4.90;;;;;;;4.85;100.00;100936.91;10489335;28;20135;-80
2023/12/30 06:49:32;;;;;;;13.93;6.00;;;;;;;4.76;100.00;100936.25;10505707;28;20127;-80
2023/12/30 06:54:33;;;;;;;9.85;3.55;;;;;;;4.80;100.00;100946.03;10504314;28;20044;-81
2023/12/30 06:59:35;;;;;;;16.08;5.65;;;;;;;4.87;100.00;100939.63;10483809;28;20373;-79
2023/12/30 07:04:35;;;;;;;14.50;5.53;;;;;;;4.87;100.00;100939.63;10504883;28;20075;-77
2023/12/30 07:09:36;;;;;;;13.30;4.82;;;;;;;4.99;100.00;100946.56;10471506;28;20041;-77
2023/12/30 07:14:38;;;;;;;19.33;4.65;;;;;;;5.16;100.00;100946.88;10506084;28;20127;-79
2023/12/30 07:19:38;;;;;;;18.95;6.20;;;;;;;5.23;100.00;100938.72;10490275;28;20048;-78
2023/12/30 07:24:38;;;;;;;22.08;6.60;;;;;;;5.25;100.00;100944.94;10488119;28;20115;-78
2023/12/30 07:29:39;;;;;;;9.90;3.97;;;;;;;5.30;100.00;100945.25;10489507;28;20060;-78
2023/12/30 07:34:40;;;;;;;11.27;3.85;;;;;;;5.25;100.00;100963.09;10506609;28;20040;-78
2023/12/30 07:39:40;;;;;;;20.15;5.40;;;;;;;5.26;100.00;100961.41;10506104;28;20128;-77
2023/12/30 07:44:41;;;;;;;16.95;4.05;;;;;;;5.23;100.00;100964.69;10488313;28;20064;-77
2023/12/30 07:49:41;;;;;;;26.85;7.50;;;;;;;5.23;100.00;100972.47;10491651;28;20044;-78
2023/12/30 07:54:42;;;;;;;18.65;6.53;;;;;;;5.19;100.00;100965.25;10502466;28;20163;-78
2023/12/30 07:59:42;;;;;;;14.90;5.53;;;;;;;5.28;100.00;100965.91;10503808;28;20045;-79
2023/12/30 08:04:43;;;;;;;15.90;5.28;;;;;;;5.37;100.00;100976.06;10503986;28;20123;-78
2023/12/30 08:09:44;;;;;;;12.43;4.82;;;;;;;5.40;100.00;100976.25;10503967;28;20048;-78
2023/12/30 08:14:44;;;;;;;23.45;5.78;;;;;;;5.54;100.00;100977.22;10502669;28;20111;-78
2023/12/30 08:19:45;;;;;;;10.38;4.10;;;;;;;5.78;100.00;100977.09;10485705;28;20059;-77
2023/12/30 08:24:45;;;;;;;10.55;5.28;;;;;;;5.86;100.00;100973.34;10504480;28;20067;-78
2023/12/30 08:29:46;;;;;;;11.32;4.72;;;;;;;5.98;100.00;100987.97;10486550;28;20514;-78
2023/12/30 08:34:46;;;;;;;15.63;6.10;;;;;;;6.08;100.00;100980.03;10507362;28;20139;-78
2023/12/30 08:39:47;;;;;;;14.68;6.57;;;;;;;6.17;100.00;100977.16;10501728;28;20063;-78
2023/12/30 08:44:47;;;;;;;18.05;5.15;;;;;;;6.26;100.00;100974.25;10502949;28;20032;-78
2023/12/30 08:49:48;;;;;;;13.10;4.93;;;;;;;6.39;100.00;100976.00;10501204;28;20079;-81
2023/12/30 08:54:48;;;;;;;16.35;5.20;;;;;;;6.50;100.00;100962.00;10427803;28;20416;-78
2023/12/30 08:59:49;;;;;;;20.67;5.68;;;;;;;6.53;100.00;100970.00;10444277;28;20124;-78
2023/12/30 09:04:49;;;;;;;12.50;4.82;;;;;;;6.61;100.00;100953.19;10442027;28;20231;-78
2023/12/30 09:09:50;;;;;;;13.88;5.13;;;;;;;6.68;100.00;100958.81;10425811;28;20131;-77
2023/12/30 09:14:50;;;;;;;20.00;6.25;;;;;;;6.70;100.00;100958.09;10440545;28;20163;-78
2023/12/30 09:19:51;;;;;;;13.45;5.25;;;;;;;6.81;100.00;100961.41;10444005;28;20075;-78
2023/12/30 09:24:52;;;;;;;12.88;4.57;;;;;;;6.82;100.00;100933.66;10440215;28;20457;-78
2023/12/30 09:29:52;;;;;;;19.25;5.45;;;;;;;7.04;100.00;100964.56;10440581;28;20560;-79
2023/12/30 09:34:53;;;;;;;28.77;5.18;;;;;;;7.24;100.00;100965.81;10474265;28;20485;-77
2023/12/30 09:39:54;;;;;;;18.00;6.13;;;;;;;7.37;100.00;100953.56;10442845;28;20115;-79
2023/12/30 09:44:54;;;;;;;23.98;5.88;;;;;;;7.43;100.00;100954.84;10423911;28;20072;-81
2023/12/30 09:49:55;;;;;;;12.88;6.00;;;;;;;7.55;100.00;100959.91;10425242;28;20114;-78
2023/12/30 09:54:56;;;;;;;26.52;6.22;;;;;;;7.69;100.00;100960.75;10465707;28;20741;-77
2023/12/30 09:59:56;;;;;;;13.45;5.38;;;;;;;7.74;100.00;100961.03;10470445;28;20033;-78
2023/12/30 10:04:57;;;;;;;12.05;5.88;;;;;;;7.82;100.00;100966.72;10471147;28;20115;-78
2023/12/30 10:09:58;;;;;;;12.07;5.20;;;;;;;7.81;100.00;100957.97;10505362;28;20044;-80
2023/12/30 10:14:58;;;;;;;19.08;5.43;;;;;;;7.74;100.00;100958.41;10502143;28;20523;-77
2023/12/30 10:19:59;;;;;;;12.73;5.82;;;;;;;7.61;100.00;100965.47;10496482;28;20060;-77
2023/12/30 10:24:59;;;;;;;10.70;4.68;;;;;;;7.64;100.00;100970.00;10501373;28;20167;-77
2023/12/30 10:30:00;;;;;;;10.30;4.10;;;;;;;7.64;100.00;100975.22;10498709;28;20060;-78
2023/12/30 10:35:00;;;;;;;19.15;5.97;;;;;;;7.66;100.00;100968.38;10483665;28;20391;-78
2023/12/30 10:40:01;;;;;;;10.45;5.20;;;;;;;7.78;100.00;100965.59;10499408;28;20116;-79
2023/12/30 10:45:01;;;;;;;19.80;4.95;;;;;;;7.79;100.00;100970.00;10495828;28;20038;-78
2023/12/30 10:50:04;;;;;;;17.30;5.15;;;;;;;7.92;100.00;100964.72;10506528;28;20064;-78
2023/12/30 10:55:11;;;;;;;17.85;4.30;;;;;;;8.11;100.00;100971.03;10489410;28;20503;-78
2023/12/30 11:00:14;;;;;;;16.08;7.63;;;;;;;8.34;100.00;100969.81;10479209;28;20131;-77
2023/12/30 11:05:37;;;;;;;12.48;5.22;;;;;;;8.74;100.00;100959.91;10463318;28;20039;-77
2023/12/30 11:10:38;;;;;;;8.77;3.88;;;;;;;9.09;100.00;100959.22;10499380;28;20055;-77
2023/12/30 11:15:39;;;;;;;11.88;4.60;;;;;;;9.29;100.00;100958.53;10501630;28;20468;-78
2023/12/30 11:20:48;;;;;;;15.50;5.05;;;;;;;9.36;100.00;100948.50;10503884;28;20399;-77
2023/12/30 11:25:48;;;;;;;13.43;4.35;;;;;;;9.16;100.00;100956.97;10493536;28;20036;-77
2023/12/30 11:30:57;;;;;;;10.82;4.72;;;;;;;8.99;100.00;100948.22;10486425;28;20119;-77
2023/12/30 11:35:57;;;;;;;14.30;4.65;;;;;;;8.87;100.00;100949.34;10471444;28;20369;-76
2023/12/30 11:40:59;;;;;;;23.17;6.00;;;;;;;8.93;100.00;100953.97;10482003;28;20124;-77
2023/12/30 11:46:00;;;;;;;;;;;;;;;8.94;100.00;100946.25;10503399;28;20033;-78
2023/12/30 11:51:00;;;;;;;16.30;4.50;;;;;;;8.78;100.00;100939.25;10505580;28;19924;-77
2023/12/30 11:56:01;;;;;;;13.55;6.15;;;;;;;8.68;100.00;100928.25;10506822;28;20310;-78
2023/12/30 12:01:02;;;;;;;10.43;5.00;;;;;;;8.83;100.00;100923.88;10506916;28;20037;-79
2023/12/30 12:06:03;;;;;;;15.00;5.65;;;;;;;8.92;100.00;100913.94;10510589;28;20115;-77
2023/12/30 12:11:03;;;;;;;16.00;3.92;;;;;;;9.02;100.00;100902.28;10498218;28;20045;-78
2023/12/30 12:16:04;;;;;;;9.88;4.45;;;;;;;9.07;100.00;100897.31;10502364;28;20431;-77
2023/12/30 12:21:11;;;;;;;14.38;4.93;;;;;;;9.24;100.00;100890.38;10500250;28;20042;-78
2023/12/30 12:26:12;;;;;;;10.77;5.60;;;;;;;9.24;100.00;100883.47;10484869;28;20480;-78
2023/12/30 12:31:12;;;;;;;8.52;4.03;;;;;;;9.21;100.00;100875.47;10488782;28;20119;-78
2023/12/30 12:36:13;;;;;;;16.85;4.25;;;;;;;9.28;100.00;100862.72;10492141;28;20505;-78
2023/12/30 12:41:13;;;;;;;10.98;4.18;;;;;;;9.40;100.00;100871.22;10468093;28;20056;-78
2023/12/30 12:46:15;;;;;;;17.75;5.97;;;;;;;9.71;100.00;100859.72;10512171;28;20036;-77
2023/12/30 12:51:16;;;;;;;8.27;4.23;;;;;;;10.07;100.00;100857.16;10490123;28;20033;-77
2023/12/30 12:56:17;;;;;;;10.68;3.70;;;;;;;10.25;100.00;100851.06;10467377;28;20123;-79
2023/12/30 13:01:17;;;;;;;12.23;2.75;;;;;;;10.40;100.00;100861.38;10516907;28;20036;-78
2023/12/30 13:06:18;;;;;;;9.15;2.88;;;;;;;10.02;100.00;100863.88;10505889;28;20123;-79
2023/12/30 13:11:27;;;;;;;11.02;3.28;;;;;;;10.05;100.00;100844.81;10463672;28;20586;-78
2023/12/30 13:16:27;;;;;;;4.97;3.10;;;;;;;10.04;100.00;100850.88;10508424;28;20114;-78
2023/12/30 13:21:29;;;;;;;6.38;3.85;;;;;;;9.84;100.00;100845.56;10499134;28;20044;-78
2023/12/30 13:26:30;;;;;;;13.88;2.65;;;;;;;9.83;100.00;100831.59;10498282;28;20074;-78
2023/12/30 13:31:33;;;;;;;6.73;2.03;;;;;;;9.69;100.00;100833.50;10489683;28;20044;-78
2023/12/30 13:36:35;;;;;;;5.47;3.45;;;;;;;9.42;100.00;100830.38;10498090;28;20404;-78
2023/12/30 13:41:36;;;;;;;10.13;3.53;;;;;;;9.29;100.00;100830.56;10494292;28;20040;-78
2023/12/30 13:51:55;;;;;;;10.48;3.30;;;;;;;9.29;100.00;100814.91;10506289;28;20043;-78
2023/12/30 13:57:11;;;;;;;10.70;2.70;;;;;;;9.23;100.00;100816.38;10476351;28;20700;-79
2023/12/30 14:02:16;;;;;;;3.90;1.58;;;;;;;9.34;100.00;100809.09;10493798;28;20043;-78
2023/12/30 14:07:24;;;;;;;6.18;3.17;;;;;;;9.40;100.00;100793.72;10500522;28;20563;-78
2023/12/30 14:12:25;;;;;;;6.53;3.22;;;;;;;9.16;100.00;100789.84;10483834;28;20455;-78
2023/12/30 14:17:28;;;;;;;6.47;2.15;;;;;;;8.85;100.00;100786.53;10504445;28;20043;-77
2023/12/30 14:22:28;;;;;;;18.38;3.58;;;;;;;8.66;100.00;100787.25;10490762;28;20056;-78
2023/12/30 14:27:29;;;;;;;7.50;2.70;;;;;;;8.72;100.00;100778.84;10480403;28;20037;-79
2023/12/30 14:32:29;;;;;;;7.82;2.30;;;;;;;8.61;100.00;100787.00;10479289;28;20071;-78
2023/12/30 14:37:30;;;;;;;12.70;3.25;;;;;;;8.47;100.00;100780.97;10482340;28;20035;-77
2023/12/30 14:42:30;;;;;;;6.32;2.03;;;;;;;8.46;100.00;100763.53;10458896;28;20421;-78
2023/12/30 14:47:31;;;;;;;6.90;1.98;;;;;;;8.28;100.00;100770.34;10496553;28;20028;-78
2023/12/30 14:52:31;;;;;;;7.13;3.50;;;;;;;8.08;100.00;100768.44;10504832;28;20686;-79
2023/12/30 14:57:32;;;;;;;4.05;1.85;;;;;;;8.00;100.00;100761.91;10495822;28;20054;-79
2023/12/30 15:02:34;;;;;;;6.65;2.20;;;;;;;7.91;100.00;100753.56;10489537;28;20423;-77
2023/12/30 15:07:34;;;;;;;9.52;3.33;;;;;;;7.68;100.00;100744.44;10490540;28;20047;-78
2023/12/30 15:12:35;;;;;;;5.82;3.10;;;;;;;7.52;100.00;100751.34;10490771;28;20457;-78
2023/12/30 15:17:35;;;;;;;3.92;2.00;;;;;;;7.43;100.00;100740.41;10499248;28;20052;-82
2023/12/30 15:22:37;;;;;;;8.93;2.38;;;;;;;7.33;100.00;100742.47;10511573;28;21524;-78
2023/12/30 15:27:38;;;;;;;5.97;2.80;;;;;;;7.23;100.00;100740.13;10512153;28;20520;-78
2023/12/30 15:32:39;;;;;;;7.90;2.42;;;;;;;7.22;100.00;100740.06;10494879;28;20101;-78
2023/12/30 15:37:39;;;;;;;10.75;4.10;;;;;;;7.15;100.00;100733.56;10472026;28;20115;-78
2023/12/30 15:42:40;;;;;;;6.32;2.45;;;;;;;7.24;100.00;100723.72;10486345;28;20117;-78
2023/12/30 15:47:42;;;;;;;9.90;2.55;;;;;;;7.54;100.00;100713.28;10511445;28;20032;-78
2023/12/30 15:52:42;;;;;;;4.82;2.40;;;;;;;7.63;100.00;100703.38;10500681;28;20040;-78
2023/12/30 15:57:43;;;;;;;6.97;3.33;;;;;;;7.75;100.00;100697.06;10494093;28;20063;-78
2023/12/30 16:02:44;;;;;;;7.70;2.13;;;;;;;7.79;100.00;100696.44;10484448;28;20399;-78
2023/12/30 16:07:44;;;;;;;9.90;2.40;;;;;;;7.91;100.00;100704.06;10481115;28;20427;-78
2023/12/30 16:12:45;;;;;;;5.38;2.40;;;;;;;7.93;100.00;100708.53;10504464;28;20127;-77
2023/12/30 16:17:46;;;;;;;11.50;2.43;;;;;;;8.03;100.00;100696.91;10442853;28;20048;-78
2023/12/30 16:22:46;;;;;;;3.97;2.20;;;;;;;8.02;100.00;100683.78;10424361;28;20140;-78
2023/12/30 16:27:47;;;;;;;4.05;2.25;;;;;;;8.01;100.00;100687.19;10462694;28;20108;-77
2023/12/30 16:32:48;;;;;;;6.05;2.15;;;;;;;8.09;100.00;100680.69;10440327;28;20112;-79
2023/12/30 16:37:51;;;;;;;5.32;2.40;;;;;;;8.15;100.00;100673.22;10460483;28;20435;-78
2023/12/30 16:42:52;;;;;;;6.47;2.97;;;;;;;8.09;100.00;100672.88;10466458;28;20127;-78
2023/12/30 16:47:52;;;;;;;9.57;2.55;;;;;;;8.01;100.00;100679.38;10461154;28;20037;-78
2023/12/30 16:52:53;;;;;;;5.07;2.15;;;;;;;7.87;100.00;100684.72;10439303;28;20124;-79
2023/12/30 16:57:54;;;;;;;5.22;1.70;;;;;;;7.91;100.00;100691.03;10461367;28;20428;-79
2023/12/30 17:02:55;;;;;;;6.78;1.92;;;;;;;7.89;100.00;100680.50;10441372;28;20517;-78
2023/12/30 17:07:55;;;;;;;3.20;2.03;;;;;;;7.89;100.00;100664.88;10475658;28;20078;-79
2023/12/30 17:12:56;;;;;;;6.45;1.92;;;;;;;7.71;100.00;100679.47;10484955;28;20060;-79
2023/12/30 17:17:56;;;;;;;5.15;2.03;;;;;;;7.54;100.00;100684.63;10508299;28;20059;-79
2023/12/30 17:22:57;;;;;;;4.90;2.92;;;;;;;7.46;100.00;100678.09;10501973;28;20135;-80
2023/12/30 17:27:57;;;;;;;9.02;1.88;;;;;;;7.30;100.00;100679.81;10499357;28;20119;-80
2023/12/30 17:32:58;;;;;;;4.15;1.70;;;;;;;7.40;100.00;100669.91;10502413;28;20130;-79
2023/12/30 17:37:58;;;;;;;4.40;2.75;;;;;;;7.35;100.00;100660.13;10507162;28;20046;-78
2023/12/30 17:42:59;;;;;;;7.07;1.70;;;;;;;7.29;100.00;100665.00;10502394;28;20040;-78
2023/12/30 17:48:00;;;;;;;5.13;1.85;;;;;;;7.33;100.00;100666.97;10495591;28;20435;-78
2023/12/30 17:53:00;;;;;;;6.47;2.22;;;;;;;7.49;100.00;100663.53;10490705;28;20122;-78
2023/12/30 17:58:01;;;;;;;5.28;1.33;;;;;;;7.74;100.00;100649.31;10500033;28;20166;-77
2023/12/30 18:03:03;;;;;;;2.83;1.60;;;;;;;7.92;100.00;100648.53;10496263;28;20118;-78
2023/12/30 18:08:04;;;;;;;5.55;1.58;;;;;;;7.97;100.00;100644.47;10508304;28;20119;-77
2023/12/30 18:13:04;;;;;;;3.50;1.63;;;;;;;7.93;100.00;100639.88;10498508;28;20131;-76
2023/12/30 18:18:08;;;;;;;3.22;1.67;;;;;;;7.98;100.00;100632.31;10480838;28;20041;-78
2023/12/30 18:23:08;;;;;;;4.30;2.00;;;;;;;7.93;100.00;100632.06;10506769;28;20044;-78
2023/12/30 18:28:09;;;;;;;3.95;1.48;;;;;;;7.82;100.00;100631.47;10497818;28;20071;-79
2023/12/30 18:33:09;;;;;;;7.20;2.13;;;;;;;7.72;100.00;100631.78;10490222;28;20112;-78
2023/12/30 18:38:10;;;;;;;5.15;1.85;;;;;;;7.76;100.00;100624.22;10497427;28;20123;-78
2023/12/30 18:43:12;;;;;;;3.85;2.10;;;;;;;7.76;100.00;100628.53;10494869;28;20033;-78
2023/12/30 18:48:12;;;;;;;2.80;2.15;;;;;;;7.69;100.00;100621.19;10498292;28;20040;-78
2023/12/30 18:53:13;;;;;;;7.40;1.70;;;;;;;7.81;100.00;100619.25;10483572;28;20040;-78
2023/12/30 18:58:14;;;;;;;3.65;1.83;;;;;;;7.79;100.00;100608.75;10500991;28;20037;-79
2023/12/30 19:03:15;;;;;;;2.97;1.33;;;;;;;7.78;100.00;100604.38;10485626;28;20051;-78
2023/12/30 19:08:16;;;;;;;7.40;2.20;;;;;;;7.83;100.00;100594.19;10483124;28;20059;-78
2023/12/30 19:13:16;;;;;;;4.45;2.08;;;;;;;7.90;100.00;100583.28;10497011;28;20120;-78
2023/12/30 19:18:17;;;;;;;4.13;1.25;;;;;;;8.05;100.00;100580.59;10498193;28;20045;-78
2023/12/30 19:23:19;;;;;;;3.33;1.90;;;;;;;7.90;100.00;100570.25;10495856;28;20508;-78
2023/12/30 19:28:20;;;;;;;2.75;1.50;;;;;;;7.58;100.00;100569.38;10497040;28;20040;-78
2023/12/30 19:33:20;;;;;;;4.45;2.42;;;;;;;7.45;100.00;100572.13;10496752;28;20123;-78
2023/12/30 19:38:21;;;;;;;3.80;2.00;;;;;;;7.36;100.00;100567.31;10496578;28;20471;-78
2023/12/30 19:43:21;;;;;;;4.15;1.85;;;;;;;7.39;100.00;100554.47;10497394;28;20123;-79
2023/12/30 19:48:24;;;;;;;2.30;1.00;;;;;;;7.48;100.00;100551.47;10496142;28;20044;-79
2023/12/30 19:53:25;;;;;;;2.88;1.73;;;;;;;7.52;100.00;100537.81;10504300;28;20040;-79
2023/12/30 19:58:26;;;;;;;4.55;1.27;;;;;;;7.56;100.00;100526.75;10466052;28;20551;-79
2023/12/30 20:03:28;;;;;;;4.82;2.10;;;;;;;7.64;100.00;100516.75;10476392;28;20040;-79
2023/12/30 20:08:29;;;;;;;3.63;1.50;;;;;;;7.56;100.00;100508.50;10508921;28;20499;-78
2023/12/30 20:13:29;;;;;;;3.60;1.88;;;;;;;7.50;100.00;100508.19;10485918;28;20127;-78
2023/12/30 20:18:30;;;;;;;1.75;1.23;;;;;;;7.47;100.00;100497.59;10501367;28;20131;-78
2023/12/30 20:23:34;;;;;;;4.90;1.90;;;;;;;7.43;100.00;100504.38;10485235;28;21619;-78
2023/12/30 20:28:34;;;;;;;2.42;1.65;;;;;;;7.51;100.00;100494.34;10504870;28;20044;-78
2023/12/30 20:33:36;;;;;;;8.30;3.25;;;;;;;7.49;100.00;100495.97;10469208;28;20115;-79
2023/12/30 20:38:39;;;;;;;2.73;1.47;;;;;;;7.54;100.00;100483.22;10475324;28;20036;-78
2023/12/30 20:43:39;;;;;;;2.75;1.10;;;;;;;7.52;100.00;100477.03;10483899;28;20048;-78
2023/12/30 20:48:41;;;;;;;3.67;1.63;;;;;;;7.51;100.00;100472.63;10506580;28;20047;-79
2023/12/30 20:53:43;;;;;;;2.90;1.43;;;;;;;7.51;100.00;100455.28;10484568;28;20127;-79
2023/12/30 20:58:44;;;;;;;2.22;1.25;;;;;;;7.60;100.00;100447.09;10467368;28;20043;-79
2023/12/30 21:03:44;;;;;;;3.50;1.73;;;;;;;7.64;100.00;100444.69;10510914;28;20044;-79
2023/12/30 21:08:46;;;;;;;1.08;0.77;;;;;;;7.81;100.00;100422.97;10485925;28;20044;-79
2023/12/30 21:13:46;;;;;;;2.40;0.90;;;;;;;7.86;100.00;100411.06;10474972;28;20534;-79
2023/12/30 21:18:47;;;;;;;2.78;1.10;;;;;;;7.86;100.00;100409.34;10503405;28;20169;-79
2023/12/30 21:23:47;;;;;;;1.35;1.15;;;;;;;7.95;100.00;100401.13;10485149;28;20064;-79
2023/12/30 21:28:49;;;;;;;2.55;1.30;;;;;;;7.96;100.00;100384.66;10503964;28;20623;-79
2023/12/30 21:33:51;;;;;;;3.25;0.95;;;;;;;8.02;100.00;100368.44;10484037;28;20478;-79
2023/12/30 21:38:51;;;;;;;2.05;1.42;;;;;;;8.06;100.00;100360.84;10483065;28;20043;-78
2023/12/30 21:43:52;;;;;;;1.48;0.73;;;;;;;8.14;100.00;100344.69;10491409;28;20048;-78
2023/12/30 21:48:52;;;;;;;1.20;1.00;;;;;;;8.22;100.00;100353.78;10461646;28;20089;-79
2023/12/30 21:53:54;;;;;;;1.52;0.82;;;;;;;8.20;100.00;100350.22;10427206;28;20097;-79
2023/12/30 21:58:54;;;;;;;3.85;0.82;;;;;;;8.17;100.00;100343.13;10438364;28;20515;-79
2023/12/30 22:03:55;;;;;;;1.92;0.70;;;;;;;7.94;100.00;100335.06;10444743;28;20111;-78
2023/12/30 22:08:55;;;;;;;1.60;0.60;;;;;;;7.70;100.00;100326.94;10480907;28;20119;-79
2023/12/30 22:13:56;;;;;;;2.80;0.95;;;;;;;7.58;100.00;100337.59;10485158;28;20049;-79
2023/12/30 22:18:56;;;;;;;1.00;0.45;;;;;;;7.86;100.00;100331.19;10496304;28;20452;-79
2023/12/30 22:23:57;;;;;;;0.85;0.77;;;;;;;8.17;100.00;100327.47;10509618;28;20126;-79
2023/12/30 22:28:58;;;;;;;1.63;0.70;;;;;;;8.50;100.00;100303.88;10503912;28;20119;-78
2023/12/30 22:33:58;;;;;;;1.08;0.73;;;;;;;8.84;100.00;100299.34;10498438;28;20041;-78
2023/12/30 22:38:58;;;;;;;1.73;0.63;;;;;;;8.89;100.00;100278.66;10492714;28;20123;-79
2023/12/30 22:43:59;;;;;;;0.77;0.65;;;;;;;8.84;100.00;100268.03;10487514;28;20075;-79
2023/12/30 22:49:00;;;;;;;1.63;0.40;;;;;;;8.89;100.00;100263.00;10499614;28;20472;-79
2023/12/30 22:54:01;;;;;;;1.10;0.53;;;;;;;8.87;100.00;100251.59;10509892;28;20043;-81
2023/12/30 22:59:01;;;;;;;1.73;0.60;;;;;;;8.89;100.00;100242.13;10500749;28;20040;-81
2023/12/30 23:04:02;;;;;;;1.10;0.70;;;;;;;8.88;100.00;100243.84;10491994;28;20384;-79